Time;durP1;ratioP1;P1;durP2;ratioP2;P2;SDS_P1;SDS_P2;PMS_P1;PMS_P2;Temp;Humidity;BMP_temperature;BMP_pressure;BME280_temperature;BME280_humidity;BME280_pressure;Samples;Min_cycle;Max_cycle;Signal;HPM_P1;HPM_P2
2022/07/14 00:00:54;;;;;;;37.17;2.65;;;16.10;99.90;;;;;;5088075;28;20040;-52
2022/07/14 00:03:20;;;;;;;10.77;1.80;;;15.90;99.90;;;;;;5087426;28;20047;-51
2022/07/14 00:05:46;;;;;;;9.13;0.90;;;15.90;99.90;;;;;;5079926;28;20036;-50
2022/07/14 00:08:11;;;;;;;8.20;1.73;;;15.90;99.90;;;;;;5084707;28;20028;-52
2022/07/14 00:10:37;;;;;;;11.23;1.70;;;15.90;99.90;;;;;;5072085;28;20045;-47
2022/07/14 00:13:02;;;;;;;9.40;1.52;;;15.90;99.90;;;;;;5073840;28;20049;-47
2022/07/14 00:15:29;;;;;;;10.55;1.50;;;15.90;99.90;;;;;;5071383;28;20041;-49
2022/07/14 00:17:56;;;;;;;9.52;1.58;;;15.90;99.90;;;;;;5082491;28;20044;-52
2022/07/14 00:20:22;;;;;;;7.55;1.35;;;15.90;99.90;;;;;;5074496;28;20109;-49
2022/07/14 00:22:48;;;;;;;8.05;1.35;;;16.00;99.90;;;;;;5079959;28;20481;-51
2022/07/14 00:25:13;;;;;;;9.30;1.52;;;16.00;99.90;;;;;;5072517;28;20036;-50
2022/07/14 00:27:39;;;;;;;9.52;1.20;;;16.00;99.90;;;;;;5086885;28;20536;-50
2022/07/14 00:30:05;;;;;;;9.75;1.92;;;15.90;99.90;;;;;;5088365;28;20520;-48
2022/07/14 00:32:34;;;;;;;10.80;1.98;;;15.90;99.90;;;;;;5083007;28;20044;-51
2022/07/14 00:35:00;;;;;;;13.10;1.70;;;15.90;99.90;;;;;;5079603;28;20447;-51
2022/07/14 00:37:26;;;;;;;14.63;1.60;;;15.80;99.90;;;;;;5078918;28;20120;-50
2022/07/14 00:39:54;;;;;;;14.27;2.17;;;15.80;99.90;;;;;;5088530;28;20044;-52
2022/07/14 00:42:35;;;;;;;7.50;1.30;;;15.80;99.90;;;;;;5083503;28;20032;-49
2022/07/14 00:45:03;;;;;;;6.85;1.88;;;15.80;99.90;;;;;;5073962;28;20029;-50
2022/07/14 00:47:29;;;;;;;12.25;1.60;;;15.70;99.90;;;;;;5084596;28;20405;-52
2022/07/14 00:49:55;;;;;;;10.35;2.10;;;15.70;99.90;;;;;;5071377;28;20043;-46
2022/07/14 00:52:24;;;;;;;5.22;1.25;;;15.70;99.90;;;;;;5083830;28;20040;-52
2022/07/14 00:54:50;;;;;;;11.98;2.33;;;15.70;99.90;;;;;;5075395;28;20043;-50
2022/07/14 00:57:16;;;;;;;11.63;2.53;;;15.70;99.90;;;;;;5080980;28;20048;-52
2022/07/14 00:59:42;;;;;;;;;;;15.70;99.90;;;;;;5090984;28;20109;-47
2022/07/14 01:02:07;;;;;;;13.20;2.03;;;15.60;99.90;;;;;;5088953;28;19916;-51
2022/07/14 01:04:33;;;;;;;10.05;1.95;;;15.60;99.90;;;;;;5072607;28;20035;-51
2022/07/14 01:06:59;;;;;;;8.20;1.85;;;15.50;99.90;;;;;;5084779;28;20048;-50
2022/07/14 01:09:24;;;;;;;6.80;1.70;;;15.40;99.90;;;;;;5076416;28;20048;-52
2022/07/14 01:11:50;;;;;;;2.53;0.60;;;15.30;99.90;;;;;;5087952;28;20032;-47
2022/07/14 01:14:15;;;;;;;9.57;1.30;;;15.30;99.90;;;;;;5077434;28;20059;-51
2022/07/14 01:16:41;;;;;;;6.50;1.30;;;15.20;99.90;;;;;;5075411;28;20040;-50
2022/07/14 01:19:07;;;;;;;6.03;1.55;;;15.20;99.90;;;;;;5077044;28;20731;-48
2022/07/14 01:21:32;;;;;;;6.00;1.27;;;15.20;99.90;;;;;;5074160;28;20080;-50
2022/07/14 01:23:58;;;;;;;13.38;2.75;;;15.20;99.90;;;;;;5077326;28;20028;-47
2022/07/14 01:26:24;;;;;;;8.05;1.38;;;15.10;99.90;;;;;;5072274;28;20048;-51
2022/07/14 01:28:50;;;;;;;2.53;0.63;;;15.10;99.90;;;;;;5086209;28;20111;-46
2022/07/14 01:31:15;;;;;;;2.40;0.52;;;15.10;99.90;;;;;;5080734;28;20489;-47
2022/07/14 01:33:41;;;;;;;2.58;0.50;;;15.00;99.90;;;;;;5080801;28;20246;-48
2022/07/14 01:36:06;;;;;;;7.47;1.48;;;15.00;99.90;;;;;;5083749;28;20510;-49
2022/07/14 01:38:32;;;;;;;7.68;1.70;;;14.90;99.90;;;;;;5072350;28;20545;-51
2022/07/14 01:40:58;;;;;;;8.10;1.92;;;14.90;99.90;;;;;;5074467;28;20077;-52
2022/07/14 01:43:23;;;;;;;8.98;3.13;;;14.90;99.90;;;;;;5084620;28;20077;-46
2022/07/14 01:45:49;;;;;;;3.83;1.15;;;14.90;99.90;;;;;;5087940;28;20035;-46
2022/07/14 01:48:14;;;;;;;7.35;1.30;;;14.90;99.90;;;;;;5084754;28;20044;-50
2022/07/14 01:50:40;;;;;;;6.70;1.75;;;15.00;99.90;;;;;;5085929;28;20645;-50
2022/07/14 01:53:06;;;;;;;13.70;2.65;;;15.00;99.90;;;;;;5087553;28;20504;-52
2022/07/14 01:55:31;;;;;;;8.85;1.65;;;14.90;99.90;;;;;;5072737;28;20046;-50
2022/07/14 01:57:57;;;;;;;4.15;1.02;;;14.90;99.90;;;;;;5084573;28;20177;-47
2022/07/14 02:00:23;;;;;;;7.60;1.17;;;14.90;99.90;;;;;;5078647;28;20037;-51
2022/07/14 02:02:48;;;;;;;4.75;0.80;;;14.80;99.90;;;;;;5074313;28;20059;-52
2022/07/14 02:05:14;;;;;;;4.60;1.13;;;14.80;99.90;;;;;;5079733;28;20038;-52
2022/07/14 02:07:40;;;;;;;4.13;0.68;;;14.80;99.90;;;;;;5078404;28;20028;-48
2022/07/14 02:12:51;;;;;;;3.03;0.55;;;14.80;99.90;;;;;;5077278;28;19920;-50
2022/07/14 02:15:17;;;;;;;2.42;0.43;;;14.80;99.90;;;;;;5078122;28;20032;-47
2022/07/14 02:17:42;;;;;;;2.53;0.43;;;14.80;99.90;;;;;;5074761;28;20037;-47
2022/07/14 02:20:09;;;;;;;2.05;0.40;;;14.80;99.90;;;;;;5081315;28;20131;-49
2022/07/14 02:22:34;;;;;;;3.20;0.45;;;14.80;99.90;;;;;;5086495;28;20048;-48
2022/07/14 02:25:00;;;;;;;3.10;0.77;;;14.80;99.90;;;;;;5078316;28;20497;-46
2022/07/14 02:27:26;;;;;;;1.17;0.30;;;14.80;99.90;;;;;;5089444;28;20110;-46
2022/07/14 02:29:53;;;;;;;1.42;0.50;;;14.80;99.90;;;;;;5089085;28;20056;-52
2022/07/14 02:32:18;;;;;;;4.82;0.88;;;14.80;99.90;;;;;;5081257;28;20126;-48
2022/07/14 02:34:44;;;;;;;5.88;0.85;;;14.80;99.90;;;;;;5089883;28;20044;-48
2022/07/14 02:37:09;;;;;;;1.17;0.40;;;14.80;99.90;;;;;;5091053;28;20069;-52
2022/07/14 02:39:35;;;;;;;1.10;0.30;;;14.70;99.90;;;;;;5076806;28;20101;-47
2022/07/14 02:42:00;;;;;;;7.22;0.38;;;14.70;99.90;;;;;;5087634;28;20036;-50
2022/07/14 02:44:26;;;;;;;2.67;0.65;;;14.60;99.90;;;;;;5072287;28;20111;-47
2022/07/14 02:46:51;;;;;;;4.57;0.30;;;14.50;99.90;;;;;;5088079;28;20039;-50
2022/07/14 02:49:17;;;;;;;0.45;0.20;;;14.30;99.90;;;;;;5093356;28;20044;-51
2022/07/14 02:51:42;;;;;;;3.30;0.88;;;14.30;99.90;;;;;;5080794;28;20043;-49
2022/07/14 02:54:08;;;;;;;3.25;1.70;;;14.20;99.90;;;;;;5072136;28;20138;-47
2022/07/14 02:56:34;;;;;;;3.55;0.88;;;14.00;99.90;;;;;;5084643;28;20036;-47
2022/07/14 02:59:00;;;;;;;;;;;14.00;99.90;;;;;;5079649;28;20534;-52
2022/07/14 03:01:25;;;;;;;1.45;0.50;;;13.90;99.90;;;;;;5089873;28;19989;-52
2022/07/14 03:03:51;;;;;;;4.10;0.70;;;13.80;99.90;;;;;;5091873;28;20032;-51
2022/07/14 03:06:19;;;;;;;1.80;1.00;;;13.90;99.90;;;;;;5080228;28;20048;-47
2022/07/14 03:08:45;;;;;;;4.47;1.13;;;13.90;99.90;;;;;;5086276;28;20032;-53
2022/07/14 03:11:11;;;;;;;1.35;0.50;;;13.90;99.90;;;;;;5082504;28;20036;-52
2022/07/14 03:13:37;;;;;;;6.85;1.52;;;13.90;99.90;;;;;;5073076;28;20417;-49
2022/07/14 03:16:06;;;;;;;3.38;1.13;;;13.90;99.90;;;;;;5079073;28;20115;-50
2022/07/14 03:18:32;;;;;;;4.22;0.90;;;13.90;99.90;;;;;;5077713;28;20054;-50
2022/07/14 03:20:57;;;;;;;4.50;1.00;;;14.00;99.90;;;;;;5078613;28;20044;-51
2022/07/14 03:23:23;;;;;;;3.92;1.35;;;14.00;99.90;;;;;;5083111;28;20382;-47
2022/07/14 03:25:49;;;;;;;4.47;1.30;;;14.00;99.90;;;;;;5081581;28;20111;-47
2022/07/14 03:28:15;;;;;;;3.10;1.38;;;14.00;99.90;;;;;;5090613;28;20032;-51
2022/07/14 03:30:41;;;;;;;6.38;1.40;;;14.10;99.90;;;;;;5088709;28;20115;-51
2022/07/14 03:33:07;;;;;;;3.47;1.30;;;14.10;99.90;;;;;;5074757;28;20123;-51
2022/07/14 03:35:36;;;;;;;5.22;1.40;;;14.10;99.90;;;;;;5071228;28;20041;-47
2022/07/14 03:38:02;;;;;;;5.80;1.42;;;14.10;99.90;;;;;;5088265;28;20122;-47
2022/07/14 03:40:27;;;;;;;2.30;0.60;;;14.10;99.90;;;;;;5090465;28;20569;-47
2022/07/14 03:42:53;;;;;;;1.63;0.60;;;14.10;99.90;;;;;;5074331;28;20648;-48
2022/07/14 03:45:18;;;;;;;2.40;0.85;;;14.10;99.90;;;;;;5087725;28;20115;-47
2022/07/14 03:47:44;;;;;;;2.55;0.70;;;14.10;99.90;;;;;;5074630;28;20090;-51
2022/07/14 03:50:10;;;;;;;1.75;0.40;;;14.00;99.90;;;;;;5089620;28;20040;-51
2022/07/14 03:52:36;;;;;;;;;;;13.90;99.90;;;;;;5076888;28;20094;-46
2022/07/14 03:55:01;;;;;;;0.73;0.20;;;13.80;99.90;;;;;;5076926;28;19920;-47
2022/07/14 03:57:27;;;;;;;0.43;0.20;;;13.70;99.90;;;;;;5085200;28;20040;-49
2022/07/14 03:59:52;;;;;;;0.80;0.10;;;13.70;99.90;;;;;;5087133;28;20032;-52
2022/07/14 04:02:18;;;;;;;0.20;0.10;;;13.60;99.90;;;;;;5085554;28;20409;-47
2022/07/14 04:04:44;;;;;;;0.50;0.20;;;13.60;99.90;;;;;;5075125;28;20349;-47
2022/07/14 04:07:09;;;;;;;2.10;0.73;;;13.60;99.90;;;;;;5074092;28;20071;-46
2022/07/14 04:09:35;;;;;;;3.78;1.05;;;13.50;99.90;;;;;;5075885;28;20471;-46
2022/07/14 04:12:00;;;;;;;6.45;1.48;;;13.50;99.90;;;;;;5076623;28;20482;-47
2022/07/14 04:14:26;;;;;;;5.18;1.08;;;13.50;99.90;;;;;;5079245;28;20032;-51
2022/07/14 04:16:52;;;;;;;5.50;1.80;;;13.60;99.90;;;;;;5075620;28;20516;-47
2022/07/14 04:19:18;;;;;;;6.40;2.20;;;13.60;99.90;;;;;;5071984;28;20055;-48
2022/07/14 04:21:44;;;;;;;4.22;1.70;;;13.60;99.90;;;;;;5082776;28;20328;-47
2022/07/14 04:24:10;;;;;;;5.75;1.48;;;13.70;99.90;;;;;;5077675;28;20459;-47
2022/07/14 04:26:40;;;;;;;5.53;1.13;;;13.70;99.90;;;;;;5080622;28;20032;-49
2022/07/14 04:29:06;;;;;;;3.35;1.40;;;13.70;99.90;;;;;;5077701;28;20035;-52
2022/07/14 04:31:32;;;;;;;;;;;13.70;99.90;;;;;;5080751;28;20088;-47
2022/07/14 04:33:57;;;;;;;9.73;2.40;;;13.70;99.90;;;;;;5076914;28;20705;-47
2022/07/14 04:36:23;;;;;;;4.88;2.13;;;13.70;99.90;;;;;;5077331;28;20036;-51
2022/07/14 04:38:48;;;;;;;11.45;2.80;;;13.70;99.90;;;;;;5080608;28;20047;-52
2022/07/14 04:41:14;;;;;;;9.10;2.00;;;13.80;99.90;;;;;;5080792;28;20375;-51
2022/07/14 04:43:40;;;;;;;7.55;2.20;;;13.80;99.90;;;;;;5077940;28;20036;-49
2022/07/14 04:46:05;;;;;;;7.07;1.83;;;13.80;99.90;;;;;;5082477;28;20032;-48
2022/07/14 04:52:01;;;;;;;6.20;1.58;;;13.80;99.90;;;;;;5083408;28;20033;-47
2022/07/14 04:54:01;;;;;;;7.90;2.13;;;13.70;99.90;;;;;;5079955;28;20040;-52
2022/07/14 04:56:26;;;;;;;8.80;2.20;;;13.80;99.90;;;;;;5082837;28;20040;-51
2022/07/14 04:58:52;;;;;;;9.77;2.75;;;13.80;99.90;;;;;;5082786;28;20078;-46
2022/07/14 05:01:18;;;;;;;6.03;2.17;;;13.80;99.90;;;;;;5072605;28;20119;-48
2022/07/14 05:03:43;;;;;;;6.40;2.03;;;13.70;99.90;;;;;;5080587;28;20286;-50
2022/07/14 05:06:11;;;;;;;3.40;1.98;;;13.80;99.90;;;;;;5085835;28;20421;-50
2022/07/14 05:08:36;;;;;;;9.35;2.58;;;13.80;99.90;;;;;;5071984;28;20513;-47
2022/07/14 05:11:06;;;;;;;8.95;2.42;;;13.80;99.90;;;;;;5076415;28;20056;-49
2022/07/14 05:13:32;;;;;;;4.32;2.17;;;13.90;99.90;;;;;;5073778;28;20067;-51
2022/07/14 05:15:57;;;;;;;9.93;2.30;;;13.90;99.90;;;;;;5070808;28;20091;-47
2022/07/14 05:18:23;;;;;;;6.33;2.60;;;14.00;99.90;;;;;;5072601;28;20318;-49
2022/07/14 05:20:48;;;;;;;10.40;3.95;;;14.00;99.90;;;;;;5072116;28;20119;-49
2022/07/14 05:23:14;;;;;;;9.05;3.63;;;14.00;99.90;;;;;;5080270;28;20510;-47
2022/07/14 05:25:39;;;;;;;8.55;2.88;;;14.10;99.90;;;;;;5072035;28;20461;-48
2022/07/14 05:28:05;;;;;;;8.18;3.15;;;14.20;99.90;;;;;;5077668;28;20042;-51
2022/07/14 05:30:31;;;;;;;8.57;3.03;;;14.20;99.90;;;;;;5090227;28;20216;-49
2022/07/14 05:32:57;;;;;;;5.95;2.08;;;14.30;99.90;;;;;;5076001;28;20044;-46
2022/07/14 05:35:23;;;;;;;10.73;3.00;;;14.30;99.90;;;;;;5069392;28;20524;-47
2022/07/14 05:37:49;;;;;;;6.68;2.88;;;14.40;99.90;;;;;;5076008;28;20068;-51
2022/07/14 05:40:14;;;;;;;8.38;2.97;;;14.40;99.90;;;;;;5070063;28;20052;-50
2022/07/14 05:42:40;;;;;;;11.15;2.83;;;14.50;99.90;;;;;;5077606;28;20036;-47
2022/07/14 05:45:07;;;;;;;11.50;3.30;;;14.60;99.90;;;;;;5068901;28;20033;-48
2022/07/14 05:47:32;;;;;;;;;;;14.70;99.90;;;;;;5069579;28;20490;-46
2022/07/14 05:49:59;;;;;;;11.82;2.60;;;14.70;99.90;;;;;;5083516;28;19923;-47
2022/07/14 05:52:24;;;;;;;;;;;14.80;99.90;;;;;;5089006;28;20096;-51
2022/07/14 05:54:50;;;;;;;10.68;2.55;;;14.80;99.90;;;;;;5088928;28;20010;-49
2022/07/14 05:57:15;;;;;;;12.05;2.22;;;14.90;99.90;;;;;;5076050;28;20055;-48
2022/07/14 05:59:41;;;;;;;7.60;2.25;;;14.90;99.90;;;;;;5069769;28;20036;-47
2022/07/14 06:02:07;;;;;;;10.07;3.58;;;15.00;99.90;;;;;;5070725;28;20044;-47
2022/07/14 06:04:32;;;;;;;6.28;2.08;;;15.00;99.90;;;;;;5071029;28;20039;-52
2022/07/14 06:06:58;;;;;;;8.85;2.25;;;15.10;99.90;;;;;;5089459;28;20040;-47
2022/07/14 06:09:24;;;;;;;9.40;2.75;;;15.20;99.90;;;;;;5080614;28;20496;-47
2022/07/14 06:11:49;;;;;;;11.23;2.10;;;15.20;99.90;;;;;;5089419;28;20127;-48
2022/07/14 06:14:15;;;;;;;5.78;1.90;;;15.30;99.90;;;;;;5071236;28;20044;-47
2022/07/14 06:16:42;;;;;;;10.20;2.05;;;15.40;99.90;;;;;;5068872;28;20151;-53
2022/07/14 06:19:07;;;;;;;7.03;1.88;;;15.50;99.90;;;;;;5069584;28;20036;-52
2022/07/14 06:21:33;;;;;;;15.65;2.78;;;15.60;99.90;;;;;;5088752;28;20063;-47
2022/07/14 06:23:58;;;;;;;8.45;1.95;;;15.70;99.90;;;;;;5078233;28;20040;-49
2022/07/14 06:26:24;;;;;;;8.68;1.90;;;15.70;99.90;;;;;;5068916;28;20052;-47
2022/07/14 06:28:50;;;;;;;9.73;1.20;;;15.80;99.90;;;;;;5069776;28;20047;-52
2022/07/14 06:31:15;;;;;;;7.80;0.77;;;15.90;99.90;;;;;;5070725;28;20476;-52
2022/07/14 06:33:41;;;;;;;8.02;0.77;;;15.90;99.90;;;;;;5068742;28;20041;-47
2022/07/14 06:36:08;;;;;;;4.60;1.75;;;16.00;99.90;;;;;;5067453;28;20052;-46
2022/07/14 06:38:34;;;;;;;4.80;1.05;;;16.00;99.90;;;;;;5069424;28;20072;-53
2022/07/14 06:41:00;;;;;;;5.60;1.42;;;16.10;99.90;;;;;;5075601;28;20469;-48
2022/07/14 06:43:25;;;;;;;5.93;0.63;;;16.10;99.90;;;;;;5077652;28;20064;-47
2022/07/14 06:45:51;;;;;;;8.68;1.15;;;16.20;99.90;;;;;;5068478;28;20028;-48
2022/07/14 06:48:17;;;;;;;16.58;1.77;;;16.20;99.90;;;;;;5079248;28;20111;-52
2022/07/14 06:50:43;;;;;;;8.55;0.85;;;16.30;99.90;;;;;;5078654;28;20042;-52
2022/07/14 06:53:09;;;;;;;5.95;1.05;;;16.40;99.90;;;;;;5073530;28;20043;-48
2022/07/14 06:55:35;;;;;;;13.55;0.93;;;16.50;99.90;;;;;;5084357;28;20040;-47
2022/07/14 06:58:00;;;;;;;3.63;0.65;;;16.50;99.90;;;;;;5093102;28;20477;-48
2022/07/14 07:00:26;;;;;;;4.35;0.65;;;16.60;99.90;;;;;;5073507;28;20064;-49
2022/07/14 07:02:52;;;;;;;6.78;0.75;;;16.60;99.90;;;;;;5080859;28;20024;-46
2022/07/14 07:08:02;;;;;;;7.15;1.05;;;16.70;99.90;;;;;;5089369;28;20489;-50
2022/07/14 07:10:28;;;;;;;6.25;0.68;;;16.80;99.90;;;;;;5092864;28;20052;-48
2022/07/14 07:12:53;;;;;;;;;;;16.90;99.90;;;;;;5090632;28;20067;-49
2022/07/14 07:15:20;;;;;;;5.20;0.55;;;16.90;99.90;;;;;;5088055;28;19958;-47
2022/07/14 07:17:45;;;;;;;;;;;16.90;99.90;;;;;;5092807;28;20040;-45
2022/07/14 07:20:11;;;;;;;6.65;0.57;;;16.90;99.90;;;;;;5092450;28;19920;-49
2022/07/14 07:22:37;;;;;;;6.95;0.40;;;16.90;99.90;;;;;;5089203;28;20492;-48
2022/07/14 07:25:04;;;;;;;5.03;0.40;;;16.90;99.90;;;;;;5091055;28;20422;-51
2022/07/14 07:27:31;;;;;;;7.07;0.98;;;17.00;99.90;;;;;;5091840;28;20489;-49
2022/07/14 07:29:58;;;;;;;4.15;0.50;;;17.00;99.90;;;;;;5083354;28;20047;-50
2022/07/14 07:32:23;;;;;;;7.28;0.80;;;17.10;99.90;;;;;;5071646;28;20068;-48
2022/07/14 07:34:49;;;;;;;11.63;1.05;;;17.20;99.90;;;;;;5071601;28;20080;-47
2022/07/14 07:37:14;;;;;;;101.13;7.38;;;17.30;99.90;;;;;;5071297;28;20059;-51
2022/07/14 07:39:40;;;;;;;8.70;1.13;;;17.40;99.90;;;;;;5102684;28;20115;-50
2022/07/14 07:42:05;;;;;;;4.47;0.30;;;17.50;99.90;;;;;;5072077;28;20085;-47
2022/07/14 07:44:31;;;;;;;2.97;0.40;;;17.60;99.90;;;;;;5070774;28;20505;-49
2022/07/14 07:46:57;;;;;;;4.50;0.32;;;17.60;99.90;;;;;;5081437;28;20488;-49
2022/07/14 07:49:23;;;;;;;;;;;17.60;99.90;;;;;;5090236;28;20105;-49
2022/07/14 07:51:49;;;;;;;5.82;0.47;;;17.70;99.90;;;;;;5071432;28;20377;-52
2022/07/14 07:54:14;;;;;;;5.10;0.45;;;17.80;99.90;;;;;;5072936;28;20044;-53
2022/07/14 07:56:40;;;;;;;3.58;0.30;;;17.90;99.90;;;;;;5069944;28;20098;-48
2022/07/14 07:59:06;;;;;;;4.53;0.47;;;17.90;99.90;;;;;;5072717;28;20028;-50
2022/07/14 08:01:31;;;;;;;3.03;0.20;;;17.90;99.90;;;;;;5073437;28;20510;-50
2022/07/14 08:03:57;;;;;;;3.95;0.40;;;17.90;99.90;;;;;;5081486;28;20493;-51
2022/07/14 08:06:22;;;;;;;5.50;0.43;;;17.80;99.90;;;;;;5071581;28;20254;-51
2022/07/14 08:08:48;;;;;;;2.42;0.20;;;17.80;99.90;;;;;;5081343;28;20033;-48
2022/07/14 08:11:13;;;;;;;3.75;0.55;;;17.80;99.90;;;;;;5075471;28;20036;-47
2022/07/14 08:13:39;;;;;;;7.45;0.40;;;17.80;99.90;;;;;;5078786;28;20055;-47
2022/07/14 08:16:05;;;;;;;7.63;0.40;;;17.80;99.90;;;;;;5089344;28;20036;-47
2022/07/14 08:18:31;;;;;;;4.82;0.63;;;17.90;99.90;;;;;;5087210;28;20035;-48
2022/07/14 08:20:56;;;;;;;5.55;0.40;;;17.90;99.90;;;;;;5089692;28;20039;-47
2022/07/14 08:23:22;;;;;;;6.68;0.90;;;18.00;99.90;;;;;;5085668;28;20120;-50
2022/07/14 08:25:47;;;;;;;0.90;0.20;;;18.00;99.90;;;;;;5071907;28;20035;-47
2022/07/14 08:28:14;;;;;;;4.28;0.70;;;18.00;99.90;;;;;;5074373;28;20037;-51
2022/07/14 08:30:40;;;;;;;4.57;0.68;;;18.00;99.90;;;;;;5091346;28;20414;-47
2022/07/14 08:33:05;;;;;;;3.03;0.30;;;18.00;99.90;;;;;;5080435;28;20094;-48
2022/07/14 08:35:34;;;;;;;5.47;0.50;;;18.00;99.90;;;;;;5090357;28;20042;-50
2022/07/14 08:37:59;;;;;;;1.50;0.20;;;18.10;99.90;;;;;;5088683;28;20044;-49
2022/07/14 08:40:26;;;;;;;7.32;0.30;;;18.20;99.90;;;;;;5085301;28;20040;-46
2022/07/14 08:42:54;;;;;;;4.35;0.40;;;18.20;99.90;;;;;;5076992;28;20555;-47
2022/07/14 08:45:22;;;;;;;3.70;0.73;;;18.20;99.90;;;;;;5070176;28;20044;-46
2022/07/14 08:47:49;;;;;;;3.38;0.40;;;18.30;99.90;;;;;;5072001;28;20044;-46
2022/07/14 08:50:17;;;;;;;1.27;0.30;;;18.40;99.90;;;;;;5084616;28;20367;-46
2022/07/14 08:52:44;;;;;;;5.88;0.35;;;18.40;99.90;;;;;;5089506;28;20417;-48
2022/07/14 08:55:11;;;;;;;2.90;0.40;;;18.40;99.90;;;;;;5077460;28;20440;-47
2022/07/14 08:57:38;;;;;;;5.55;0.50;;;18.50;99.90;;;;;;5080632;28;20028;-48
2022/07/14 09:00:09;;;;;;;2.67;0.22;;;18.60;99.90;;;;;;5085048;28;20103;-51
2022/07/14 09:02:35;;;;;;;2.20;0.20;;;18.70;99.90;;;;;;5087805;28;20040;-47
2022/07/14 09:05:01;;;;;;;2.97;0.75;;;18.80;99.90;;;;;;5076557;28;20582;-47
2022/07/14 09:07:35;;;;;;;6.72;0.47;;;18.90;99.90;;;;;;5081236;28;20040;-48
2022/07/14 09:10:07;;;;;;;7.20;0.70;;;19.00;99.60;;;;;;5081365;28;21337;-50
2022/07/14 09:12:34;;;;;;;2.80;0.20;;;19.10;99.10;;;;;;5081925;28;20074;-47
2022/07/14 09:18:02;;;;;;;2.58;0.25;;;19.20;98.80;;;;;;5083578;28;20447;-48
2022/07/14 09:20:32;;;;;;;8.25;0.52;;;19.30;99.10;;;;;;5076809;28;20040;-46
2022/07/14 09:23:02;;;;;;;1.27;0.30;;;19.40;99.90;;;;;;5071733;28;20482;-47
2022/07/14 09:25:30;;;;;;;5.50;0.38;;;19.40;99.40;;;;;;5075330;28;20115;-51
2022/07/14 09:27:56;;;;;;;6.80;0.50;;;19.40;99.10;;;;;;5083538;28;20040;-50
2022/07/14 09:30:23;;;;;;;1.73;0.10;;;19.40;98.90;;;;;;5071139;28;20037;-48
2022/07/14 09:32:53;;;;;;;3.30;0.20;;;19.50;98.00;;;;;;5079574;28;20114;-50
2022/07/14 09:35:26;;;;;;;4.28;0.20;;;19.50;97.10;;;;;;5086877;28;20497;-52
2022/07/14 09:37:53;;;;;;;0.75;0.15;;;19.50;97.00;;;;;;5075819;28;20063;-52
2022/07/14 09:40:28;;;;;;;5.72;0.20;;;19.50;97.30;;;;;;5079983;28;20087;-48
2022/07/14 09:43:03;;;;;;;2.47;0.17;;;19.50;97.50;;;;;;5089390;28;20032;-50
2022/07/14 09:45:36;;;;;;;4.60;0.28;;;19.60;97.60;;;;;;5071828;28;20060;-48
2022/07/14 09:48:09;;;;;;;3.25;0.20;;;19.60;97.50;;;;;;5069585;28;20041;-49
2022/07/14 09:50:48;;;;;;;3.05;0.35;;;19.60;97.60;;;;;;5081453;28;20047;-48
2022/07/14 09:53:21;;;;;;;2.10;0.28;;;19.70;97.50;;;;;;5071678;28;20375;-50
2022/07/14 09:55:59;;;;;;;4.55;0.20;;;19.60;97.40;;;;;;5073920;28;20658;-46
2022/07/14 09:58:54;;;;;;;1.88;0.20;;;19.70;97.20;;;;;;5073987;28;20044;-47
2022/07/14 10:01:21;;;;;;;2.22;0.20;;;19.60;96.90;;;;;;5078883;28;20443;-47
2022/07/14 10:03:49;;;;;;;7.55;0.55;;;19.60;96.80;;;;;;5085234;28;20028;-47
2022/07/14 10:06:16;;;;;;;9.38;1.05;;;19.60;96.80;;;;;;5069216;28;20032;-52
2022/07/14 10:08:45;;;;;;;1.55;0.20;;;19.70;96.90;;;;;;5080833;28;20094;-47
2022/07/14 10:11:11;;;;;;;3.33;0.20;;;19.70;97.20;;;;;;5069110;28;20222;-47
2022/07/14 10:13:39;;;;;;;2.72;0.30;;;19.60;96.70;;;;;;5075964;28;20355;-46
2022/07/14 10:16:05;;;;;;;0.93;0.20;;;19.60;97.30;;;;;;5088188;28;20032;-47
2022/07/14 10:18:32;;;;;;;2.97;0.17;;;19.60;97.40;;;;;;5087536;28;20524;-47
2022/07/14 10:21:00;;;;;;;1.70;0.30;;;19.60;97.20;;;;;;5078428;28;20482;-47
2022/07/14 10:23:27;;;;;;;4.50;0.20;;;19.60;97.10;;;;;;5074369;28;20127;-49
2022/07/14 10:25:54;;;;;;;2.30;0.20;;;19.60;97.20;;;;;;5089790;28;20087;-48
2022/07/14 10:28:22;;;;;;;2.50;0.15;;;19.60;97.60;;;;;;5086411;28;20040;-48
2022/07/14 10:31:09;;;;;;;1.85;0.20;;;19.60;97.40;;;;;;5075602;28;20060;-47
2022/07/14 10:33:56;;;;;;;3.55;0.28;;;19.70;97.40;;;;;;5076616;28;20031;-47
2022/07/14 10:36:47;;;;;;;4.25;0.20;;;19.70;96.80;;;;;;5092065;28;20085;-49
2022/07/14 10:39:38;;;;;;;1.65;0.30;;;19.70;96.60;;;;;;5075155;28;20048;-52
2022/07/14 10:42:24;;;;;;;1.88;0.20;;;19.70;96.70;;;;;;5084019;28;20043;-52
2022/07/14 10:44:51;;;;;;;2.08;0.20;;;19.70;96.70;;;;;;5075515;28;20036;-50
2022/07/14 10:47:18;;;;;;;1.95;0.20;;;19.70;96.90;;;;;;5080398;28;20169;-48
2022/07/14 10:50:07;;;;;;;1.90;0.28;;;19.70;97.10;;;;;;5074182;28;20043;-52
2022/07/14 10:52:38;;;;;;;1.67;0.10;;;19.70;96.60;;;;;;5073807;28;20036;-49
2022/07/14 10:55:17;;;;;;;1.25;0.10;;;19.70;96.80;;;;;;5089485;28;20032;-52
2022/07/14 10:57:58;;;;;;;4.00;0.50;;;19.70;96.10;;;;;;5087487;28;20453;-53
2022/07/14 11:00:43;;;;;;;1.63;0.35;;;19.70;96.50;;;;;;5087069;28;20040;-50
2022/07/14 11:03:34;;;;;;;2.47;0.40;;;19.70;96.90;;;;;;5083405;28;20044;-52
2022/07/14 11:06:03;;;;;;;3.25;0.40;;;19.70;96.40;;;;;;5084128;28;20079;-48
2022/07/14 11:08:33;;;;;;;1.27;0.30;;;19.80;97.00;;;;;;5083968;28;20094;-52
2022/07/14 11:11:00;;;;;;;0.73;0.10;;;19.80;96.60;;;;;;5072081;28;20076;-52
2022/07/14 11:13:27;;;;;;;1.95;0.20;;;19.80;96.90;;;;;;5077496;28;20032;-51
2022/07/14 11:16:02;;;;;;;3.33;0.10;;;19.80;96.80;;;;;;5090129;28;20078;-50
2022/07/14 11:18:34;;;;;;;3.22;0.20;;;19.80;96.70;;;;;;5087250;28;20036;-49
2022/07/14 11:21:13;;;;;;;5.13;0.68;;;19.80;96.70;;;;;;5091935;28;20066;-49
2022/07/14 11:23:50;;;;;;;2.20;0.10;;;19.80;96.80;;;;;;5089326;28;20040;-50
2022/07/14 11:26:40;;;;;;;1.30;0.20;;;19.80;96.20;;;;;;5090440;28;20040;-48
2022/07/14 11:29:08;;;;;;;2.55;0.10;;;19.90;96.10;;;;;;5082668;28;20045;-47
2022/07/14 11:31:48;;;;;;;3.47;0.30;;;19.90;96.40;;;;;;5090849;28;20040;-47
2022/07/14 11:37:16;;;;;;;2.83;0.25;;;19.90;96.00;;;;;;5090244;28;20048;-46
2022/07/14 11:39:44;;;;;;;3.40;0.40;;;19.90;96.00;;;;;;5079366;28;20089;-48
2022/07/14 11:42:14;;;;;;;0.85;0.17;;;19.90;96.30;;;;;;5091304;28;20048;-48
2022/07/14 11:44:40;;;;;;;2.40;0.47;;;20.00;96.30;;;;;;5073874;28;20040;-44
2022/07/14 11:47:07;;;;;;;2.60;0.20;;;20.00;96.80;;;;;;5071081;28;20452;-44
2022/07/14 11:49:34;;;;;;;1.60;0.40;;;20.00;96.70;;;;;;5074770;28;20037;-47
2022/07/14 11:52:01;;;;;;;2.83;0.25;;;20.00;96.40;;;;;;5081026;28;20044;-48
2022/07/14 11:54:27;;;;;;;2.15;0.17;;;20.10;96.30;;;;;;5074246;28;20048;-50
2022/07/14 11:57:07;;;;;;;2.63;0.52;;;20.10;96.40;;;;;;5088310;28;20058;-49
2022/07/14 11:59:39;;;;;;;3.05;0.15;;;20.10;96.20;;;;;;5089560;28;20463;-50
2022/07/14 12:02:18;;;;;;;2.92;0.28;;;20.10;96.20;;;;;;5071241;28;20044;-51
2022/07/14 12:05:01;;;;;;;3.63;0.52;;;20.10;96.60;;;;;;5071579;28;20040;-48
2022/07/14 12:07:43;;;;;;;5.47;0.45;;;20.10;96.70;;;;;;5071947;28;20032;-46
2022/07/14 12:10:09;;;;;;;2.25;0.17;;;20.10;97.10;;;;;;5073299;28;20107;-46
2022/07/14 12:12:41;;;;;;;0.70;0.10;;;20.10;97.10;;;;;;5091686;28;20381;-49
2022/07/14 12:15:07;;;;;;;2.63;0.20;;;20.20;96.40;;;;;;5087218;28;20559;-45
2022/07/14 12:17:45;;;;;;;5.13;0.93;;;20.20;96.50;;;;;;5073355;28;20036;-48
2022/07/14 12:20:11;;;;;;;2.20;0.30;;;20.20;96.40;;;;;;5072396;28;20042;-48
2022/07/14 12:22:44;;;;;;;2.15;0.20;;;20.20;96.80;;;;;;5070715;28;20552;-46
2022/07/14 12:25:29;;;;;;;8.63;0.32;;;20.20;96.80;;;;;;5082211;28;20025;-49
2022/07/14 12:27:55;;;;;;;2.95;0.70;;;20.30;96.40;;;;;;5081994;28;20390;-52
2022/07/14 12:30:22;;;;;;;1.38;0.10;;;20.40;96.90;;;;;;5071701;28;20130;-51
2022/07/14 12:32:55;;;;;;;4.30;0.28;;;20.40;96.60;;;;;;5070511;28;20529;-49
2022/07/14 12:35:21;;;;;;;2.20;0.40;;;20.50;96.20;;;;;;5082642;28;20053;-51
2022/07/14 12:37:50;;;;;;;4.10;0.65;;;20.60;96.30;;;;;;5090645;28;20040;-50
2022/07/14 12:40:17;;;;;;;6.45;0.28;;;20.70;96.80;;;;;;5078048;28;20060;-52
2022/07/14 12:42:44;;;;;;;4.43;0.55;;;20.80;96.60;;;;;;5070035;28;20048;-49
2022/07/14 12:45:09;;;;;;;5.32;0.20;;;20.90;96.30;;;;;;5078558;28;20040;-51
2022/07/14 12:48:00;;;;;;;;;;;20.90;96.50;;;;;;5089321;28;20036;-51
2022/07/14 12:50:29;;;;;;;0.50;0.20;;;20.90;96.30;;;;;;5078068;28;19916;-47
2022/07/14 12:52:57;;;;;;;3.58;0.15;;;21.00;96.20;;;;;;5067954;28;20048;-51
2022/07/14 12:55:39;;;;;;;2.25;0.22;;;20.90;96.00;;;;;;5078940;28;20070;-48
2022/07/14 12:58:07;;;;;;;3.05;0.25;;;20.90;96.20;;;;;;5084583;28;20043;-49
2022/07/14 13:00:33;;;;;;;3.38;0.20;;;20.90;96.20;;;;;;5079246;28;20044;-51
2022/07/14 13:03:17;;;;;;;2.15;0.10;;;20.80;96.40;;;;;;5069472;28;20485;-47
2022/07/14 13:05:46;;;;;;;3.42;0.20;;;20.80;95.90;;;;;;5080836;28;20036;-47